Forside
METAR-TAF:

METAR-TAF

Lufthavne :

Chengdu Shuangliu International Airport

Chengdu, Kina

Breddekreds: 30-40N, længdekreds: 104-01E, højde: 508 m

Aktuelle vejr

Denne rapport blev lavet for 1 time og 14 minutter siden, kl. 13:00 UTC
Vind stille
Temperatur 8°C
Fugtighed 93%
Tryk 1019 hPa
Sigt: 2500 m
dis

METAR: ZUUU 191300Z 00000MPS 2500 BR NSC 08/07 Q1019 NOSIG

Tid: 22:14 (14:14 UTC)

Vejrudsigter

Denne rapport blev lavet for 29 minutter siden, kl. 13:45 UTC
Foreløbig gælder fra 19 på 12 UTC til 20 på 12 UTC
Vind 4 kt fra sydsydvest
Sigt: 2000 m
Spredte skyer i en højde af 5000 ft
dis
ændring
fra 19 på 17 UTC til 19 på 18 UTC
Sigt: 0900 m
tåge
ændring
fra 19 på 19 UTC til 19 på 20 UTC
Sigt: 0300 m
ændring
fra 20 på 02 UTC til 20 på 03 UTC
Sigt: 1200 m
dis
ændring
fra 20 på 05 UTC til 20 på 06 UTC
Sigt: 3000 m

TAF: ZUUU 191345Z 1912/2012 20002MPS 2000 BR SCT050 TX12/2008Z TN03/1919Z BECMG 1917/1918 0900 FG BECMG 1919/1920 0300 BECMG 2002/2003 1200 BR BECMG 2005/2006 3000

Vejrobservationer og prognoser fra mere end 4000 lufthavne (METAR og TAF).

De gule og røde prikker repræsenterer de meteorologiske stationer.

Flyt musen over at se navnet på stationen.

Så klik over at se vejr observationer og prognoser.

At skifte det kort: Klik på de grønne knapper med et sort kors for at zoome ind; på den grønne knap med en bindestreg for at zoome ud; eller på de grønne pile for tilstødende kort.


METAR-TAF: